createdAt,value
2023-05-21T00:01:16.462Z,26.20
2023-05-21T00:03:44.118Z,25.10
2023-05-21T00:06:12.393Z,22.05
2023-05-21T00:08:39.809Z,25.98
2023-05-21T00:11:07.484Z,27.20
2023-05-21T00:13:34.939Z,22.75
2023-05-21T00:16:02.640Z,21.90
2023-05-21T00:18:29.960Z,22.65
2023-05-21T00:20:57.689Z,25.17
2023-05-21T00:23:24.996Z,23.98
2023-05-21T00:25:53.120Z,22.98
2023-05-21T00:28:20.463Z,21.83
2023-05-21T00:30:48.094Z,20.73
2023-05-21T00:33:15.433Z,23.70
2023-05-21T00:35:58.164Z,21.63
2023-05-21T00:38:25.544Z,28.75
2023-05-21T00:40:53.334Z,20.75
2023-05-21T00:43:20.704Z,20.05
2023-05-21T00:45:48.254Z,21.63
2023-05-21T00:48:15.643Z,23.05
2023-05-21T00:50:43.379Z,22.95
2023-05-21T00:53:10.964Z,24.08
2023-05-21T00:55:38.833Z,23.65
2023-05-21T00:58:06.623Z,23.80
2023-05-21T01:00:35.047Z,24.40
2023-05-21T01:03:02.510Z,23.02
2023-05-21T01:05:30.658Z,22.02
2023-05-21T01:07:58.476Z,29.77
2023-05-21T01:10:26.480Z,21.77
2023-05-21T01:12:54.872Z,26.05
2023-05-21T01:15:22.544Z,22.00
2023-05-21T01:17:51.157Z,23.00
2023-05-21T01:20:19.773Z,21.52
2023-05-21T01:22:56.619Z,23.88
2023-05-21T01:25:24.312Z,25.88
2023-05-21T01:27:51.821Z,24.88
2023-05-21T01:30:20.421Z,24.35
2023-05-21T01:32:47.776Z,22.85
2023-05-21T01:35:22.137Z,21.65
2023-05-21T01:37:55.407Z,20.67
2023-05-21T01:40:31.805Z,23.77
2023-05-21T01:42:59.542Z,24.05
2023-05-21T01:45:28.095Z,20.92
2023-05-21T01:47:55.632Z,24.05
2023-05-21T01:50:23.963Z,25.10
2023-05-21T01:52:52.335Z,26.08
2023-05-21T01:55:20.565Z,23.75
2023-05-21T01:57:47.903Z,25.38
2023-05-21T02:00:15.667Z,25.75
2023-05-21T02:02:43.065Z,23.63
2023-05-21T02:05:10.860Z,23.83
2023-05-21T02:07:38.270Z,23.77
2023-05-21T02:10:06.159Z,25.85
2023-05-21T02:12:33.666Z,27.45
2023-05-21T02:15:01.378Z,22.15
2023-05-21T02:17:28.791Z,27.83
2023-05-21T02:19:56.743Z,28.58
2023-05-21T02:22:24.079Z,25.70
2023-05-21T02:24:51.657Z,32.05
2023-05-21T02:27:18.978Z,23.85
2023-05-21T02:29:46.618Z,24.35
2023-05-21T02:32:14.992Z,28.90
2023-05-21T02:34:42.624Z,28.23
2023-05-21T02:37:09.904Z,25.33
2023-05-21T02:39:37.486Z,28.25
2023-05-21T02:42:04.893Z,27.52
2023-05-21T02:44:32.472Z,26.92
2023-05-21T02:46:59.798Z,24.02
2023-05-21T02:49:27.452Z,26.40
2023-05-21T02:51:54.744Z,26.77
2023-05-21T02:54:22.325Z,23.67
2023-05-21T02:56:49.675Z,24.65
2023-05-21T02:59:17.241Z,27.73
2023-05-21T03:01:44.641Z,28.38
2023-05-21T03:04:12.326Z,25.27
2023-05-21T03:06:40.141Z,23.80
2023-05-21T03:09:07.840Z,28.95
2023-05-21T03:11:35.251Z,26.58
2023-05-21T03:14:02.968Z,30.38
2023-05-21T03:16:30.324Z,26.45
2023-05-21T03:18:57.969Z,23.23
2023-05-21T03:21:25.346Z,23.50
2023-05-21T03:23:52.955Z,24.73
2023-05-21T03:26:20.341Z,23.67
2023-05-21T03:28:47.929Z,23.83
2023-05-21T03:31:15.302Z,25.02
2023-05-21T03:33:43.075Z,22.92
2023-05-21T03:36:10.643Z,24.60
2023-05-21T03:38:38.300Z,24.15
2023-05-21T03:41:06.343Z,21.30
2023-05-21T03:43:34.155Z,20.42
2023-05-21T03:46:01.604Z,17.85
2023-05-21T03:48:29.293Z,19.27
2023-05-21T03:50:56.684Z,19.15
2023-05-21T03:53:24.430Z,17.65
2023-05-21T03:55:51.803Z,16.65
2023-05-21T03:58:19.430Z,16.23
2023-05-21T04:00:46.829Z,18.00
2023-05-21T04:03:14.689Z,18.42
2023-05-21T04:05:42.515Z,17.25
2023-05-21T04:08:10.285Z,15.43
2023-05-21T04:10:37.580Z,16.20
2023-05-21T04:13:05.184Z,16.05
2023-05-21T04:15:32.575Z,15.55
2023-05-21T04:18:00.233Z,15.07
2023-05-21T04:20:27.631Z,15.68
2023-05-21T04:22:55.210Z,16.48
2023-05-21T04:25:22.621Z,15.23
2023-05-21T04:27:50.253Z,17.08
2023-05-21T04:30:17.598Z,14.18
2023-05-21T04:32:45.285Z,17.35
2023-05-21T04:35:12.611Z,13.82
2023-05-21T04:37:40.270Z,12.43
2023-05-21T04:40:08.777Z,13.30
2023-05-21T04:42:36.423Z,16.98
2023-05-21T04:45:03.873Z,15.00
2023-05-21T04:47:31.542Z,14.68
2023-05-21T04:49:58.849Z,13.98
2023-05-21T04:52:26.458Z,16.02
2023-05-21T04:54:53.825Z,13.77
2023-05-21T04:57:21.451Z,13.20
2023-05-21T04:59:48.785Z,11.73
2023-05-21T05:02:16.653Z,11.23
2023-05-21T05:04:44.013Z,11.27
2023-05-21T05:07:11.766Z,14.20
2023-05-21T05:09:39.060Z,11.40
2023-05-21T05:12:06.843Z,13.73
2023-05-21T05:14:34.192Z,12.25
2023-05-21T05:17:02.971Z,9.70
2023-05-21T05:19:30.736Z,10.40
2023-05-21T05:21:58.476Z,12.07
2023-05-21T05:24:25.862Z,13.10
2023-05-21T05:26:53.435Z,12.60
2023-05-21T05:29:20.770Z,10.90
2023-05-21T05:31:48.399Z,11.35
2023-05-21T05:34:15.791Z,11.43
2023-05-21T05:36:43.379Z,10.98
2023-05-21T05:39:10.737Z,14.02
2023-05-21T05:41:38.370Z,10.82
2023-05-21T05:44:05.751Z,13.50
2023-05-21T05:46:33.414Z,11.50
2023-05-21T05:49:00.711Z,10.07
2023-05-21T05:51:28.386Z,11.05
2023-05-21T05:53:55.706Z,13.45
2023-05-21T05:56:24.190Z,10.60
2023-05-21T05:58:51.690Z,15.15
2023-05-21T06:01:19.542Z,9.77
2023-05-21T06:03:47.147Z,12.73
2023-05-21T06:06:15.181Z,11.13
2023-05-21T06:08:46.958Z,9.63
2023-05-21T06:11:14.578Z,11.32
2023-05-21T06:13:43.472Z,11.27
2023-05-21T06:16:13.939Z,17.52
2023-05-21T06:18:41.644Z,9.98
2023-05-21T06:21:09.258Z,9.60
2023-05-21T06:23:36.634Z,8.25
2023-05-21T06:26:04.718Z,8.30
2023-05-21T06:28:32.022Z,10.15
2023-05-21T06:31:02.289Z,9.23
2023-05-21T06:33:29.764Z,8.50
2023-05-21T06:35:57.521Z,10.60
2023-05-21T06:38:24.845Z,8.00
2023-05-21T06:40:52.469Z,7.22
2023-05-21T06:43:19.934Z,9.25
2023-05-21T06:45:47.644Z,9.25
2023-05-21T06:48:15.096Z,11.35
2023-05-21T06:50:43.003Z,9.38
2023-05-21T06:53:10.621Z,9.60
2023-05-21T06:55:39.792Z,7.95
2023-05-21T06:58:07.390Z,8.10
2023-05-21T07:00:38.035Z,8.85
2023-05-21T07:03:05.628Z,8.90
2023-05-21T07:05:33.654Z,8.90
2023-05-21T07:08:06.121Z,9.43
2023-05-21T07:10:40.470Z,7.85
2023-05-21T07:13:07.909Z,9.13
2023-05-21T07:15:36.530Z,9.00
2023-05-21T07:21:19.451Z,9.10
2023-05-21T07:23:49.623Z,6.18
2023-05-21T07:26:17.285Z,7.88
2023-05-21T07:28:46.584Z,7.82
2023-05-21T07:31:14.380Z,6.95
2023-05-21T07:33:41.824Z,8.95
2023-05-21T07:36:09.471Z,6.32
2023-05-21T07:38:36.828Z,7.10
2023-05-21T07:41:04.649Z,6.90
2023-05-21T07:43:33.468Z,9.90
2023-05-21T07:46:01.163Z,6.60
2023-05-21T07:48:28.496Z,7.38
2023-05-21T07:50:57.466Z,9.68
2023-05-21T07:53:24.951Z,8.02
2023-05-21T07:55:52.582Z,6.97
2023-05-21T07:58:22.717Z,8.90
2023-05-21T08:00:50.575Z,7.67
2023-05-21T08:03:18.350Z,9.93
2023-05-21T08:05:46.780Z,8.35
2023-05-21T08:08:17.491Z,6.70
2023-05-21T08:10:45.621Z,6.82
2023-05-21T08:13:12.985Z,7.85
2023-05-21T08:15:40.606Z,6.88
2023-05-21T08:18:08.010Z,9.50
2023-05-21T08:20:35.797Z,8.00
2023-05-21T08:23:03.156Z,7.45
2023-05-21T08:25:32.354Z,6.13
2023-05-21T08:27:59.732Z,7.00
2023-05-21T08:30:27.366Z,9.95
2023-05-21T08:32:54.824Z,7.07
2023-05-21T08:35:22.540Z,7.65
2023-05-21T08:37:49.901Z,7.15
2023-05-21T08:40:18.060Z,7.75
2023-05-21T08:42:48.918Z,5.45
2023-05-21T08:47:45.940Z,7.03
2023-05-21T08:50:14.339Z,8.35
2023-05-21T08:52:42.933Z,6.32
2023-05-21T08:55:10.778Z,8.82
2023-05-21T08:57:40.888Z,4.90
2023-05-21T09:00:09.053Z,6.87
2023-05-21T09:02:37.976Z,6.78
2023-05-21T09:05:06.073Z,4.93
2023-05-21T09:07:39.295Z,4.45
2023-05-21T09:10:07.829Z,6.35
2023-05-21T09:12:35.387Z,4.50
2023-05-21T09:15:03.402Z,5.43
2023-05-21T09:17:30.916Z,6.40
2023-05-21T09:20:14.264Z,5.75
2023-05-21T09:22:51.264Z,7.97
2023-05-21T09:25:21.588Z,5.80
2023-05-21T09:27:50.034Z,8.63
2023-05-21T09:30:18.264Z,4.85
2023-05-21T09:32:52.744Z,5.75
2023-05-21T09:35:23.935Z,4.43
2023-05-21T09:37:52.669Z,7.00
2023-05-21T09:40:23.979Z,9.32
2023-05-21T09:45:38.454Z,4.60
2023-05-21T09:51:50.060Z,5.75
2023-05-21T09:54:20.824Z,4.78
2023-05-21T09:56:53.933Z,4.70
2023-05-21T10:02:23.644Z,5.72
2023-05-21T10:04:56.127Z,6.80
2023-05-21T10:10:47.399Z,6.47
2023-05-21T10:13:18.730Z,5.13
2023-05-21T10:16:06.999Z,6.55
2023-05-21T10:18:37.504Z,6.18
2023-05-21T10:21:05.114Z,6.85
2023-05-21T10:23:41.153Z,5.25
2023-05-21T10:26:16.568Z,5.20
2023-05-21T10:31:52.592Z,4.32
2023-05-21T10:34:23.400Z,6.80
2023-05-21T10:36:51.114Z,4.20
2023-05-21T10:39:19.341Z,3.97
2023-05-21T10:41:54.725Z,3.78
2023-05-21T10:44:34.402Z,3.30
2023-05-21T10:47:04.493Z,3.83
2023-05-21T10:49:36.367Z,4.38
2023-05-21T10:52:18.909Z,5.07
2023-05-21T10:55:13.679Z,5.22
2023-05-21T10:57:59.584Z,8.23
2023-05-21T11:00:31.559Z,6.78
2023-05-21T11:03:14.799Z,5.55
2023-05-21T11:05:52.754Z,5.30
2023-05-21T11:08:23.979Z,6.10
2023-05-21T11:13:18.800Z,4.05
2023-05-21T11:15:58.328Z,5.75
2023-05-21T11:18:50.153Z,4.30
2023-05-21T11:21:18.776Z,4.38
2023-05-21T11:23:56.358Z,4.47
2023-05-21T11:26:24.929Z,6.25
2023-05-21T11:29:04.228Z,11.82
2023-05-21T11:31:32.995Z,5.30
2023-05-21T11:34:12.287Z,5.72
2023-05-21T11:36:46.469Z,7.65
2023-05-21T11:39:14.685Z,4.53
2023-05-21T11:41:51.983Z,6.63
2023-05-21T11:44:21.519Z,3.95
2023-05-21T11:46:49.368Z,5.63
2023-05-21T11:49:16.986Z,5.40
2023-05-21T11:51:44.818Z,8.52
2023-05-21T11:54:12.147Z,3.67
2023-05-21T11:56:40.238Z,3.70
2023-05-21T11:59:13.605Z,8.55
2023-05-21T12:01:44.109Z,6.05
2023-05-21T12:04:11.619Z,3.72
2023-05-21T12:06:42.467Z,3.22
2023-05-21T12:09:10.297Z,5.32
2023-05-21T12:11:39.296Z,4.25
2023-05-21T12:14:13.588Z,3.30
2023-05-21T12:16:41.348Z,2.60
2023-05-21T12:19:09.396Z,8.13
2023-05-21T12:21:37.819Z,3.40
2023-05-21T12:24:05.219Z,4.68
2023-05-21T12:26:32.950Z,3.33
2023-05-21T12:29:00.826Z,10.68
2023-05-21T12:31:30.018Z,4.85
2023-05-21T12:33:57.680Z,4.35
2023-05-21T12:36:30.303Z,5.25
2023-05-21T12:38:58.029Z,4.90
2023-05-21T12:41:26.079Z,3.70
2023-05-21T12:43:53.526Z,5.05
2023-05-21T12:49:05.805Z,3.38
2023-05-21T12:51:39.997Z,5.72
2023-05-21T12:54:13.248Z,3.08
2023-05-21T12:56:44.390Z,5.55
2023-05-21T12:59:16.217Z,2.97
2023-05-21T13:01:47.324Z,3.75
2023-05-21T13:04:14.858Z,3.85
2023-05-21T13:06:44.903Z,3.63
2023-05-21T13:09:12.154Z,2.67
2023-05-21T13:11:39.813Z,3.72
2023-05-21T13:14:07.143Z,4.03
2023-05-21T13:16:38.044Z,6.20
2023-05-21T13:19:08.280Z,4.27
2023-05-21T13:21:36.058Z,4.30
2023-05-21T13:24:03.658Z,3.85
2023-05-21T13:26:34.418Z,5.03
2023-05-21T13:29:02.055Z,2.92
2023-05-21T13:31:29.706Z,3.25
2023-05-21T13:33:58.295Z,4.55
2023-05-21T13:36:25.983Z,3.08
2023-05-21T13:38:53.448Z,3.63
2023-05-21T13:41:46.229Z,3.08
2023-05-21T13:44:16.279Z,4.47
2023-05-21T13:46:44.619Z,7.43
2023-05-21T13:49:12.012Z,6.10
2023-05-21T13:51:45.897Z,3.58
2023-05-21T13:54:13.298Z,6.68
2023-05-21T13:56:45.260Z,2.70
2023-05-21T13:59:12.639Z,6.03
2023-05-21T14:01:43.377Z,4.03
2023-05-21T14:04:11.330Z,4.28
2023-05-21T14:06:51.674Z,3.53
2023-05-21T14:09:19.521Z,4.35
2023-05-21T14:11:51.128Z,5.78
2023-05-21T14:14:40.218Z,5.13
2023-05-21T14:17:09.886Z,5.35
2023-05-21T14:19:37.288Z,3.28
2023-05-21T14:22:10.469Z,3.08
2023-05-21T14:24:40.266Z,3.13
2023-05-21T14:30:20.449Z,2.88
2023-05-21T14:32:50.934Z,3.58
2023-05-21T14:35:19.929Z,4.18
2023-05-21T14:37:49.682Z,5.55
2023-05-21T14:43:09.794Z,4.82
2023-05-21T14:45:59.401Z,7.43
2023-05-21T14:48:27.399Z,6.45
2023-05-21T14:50:54.745Z,2.85
2023-05-21T14:53:27.426Z,6.15
2023-05-21T14:56:02.307Z,4.80
2023-05-21T14:58:32.158Z,4.63
2023-05-21T15:01:03.085Z,4.03
2023-05-21T15:06:31.031Z,4.20
2023-05-21T15:09:01.050Z,4.53
2023-05-21T15:11:29.739Z,2.50
2023-05-21T15:17:07.690Z,3.40
2023-05-21T15:19:38.258Z,4.65
2023-05-21T15:22:09.531Z,2.87
2023-05-21T15:24:44.551Z,5.15
2023-05-21T15:27:15.327Z,4.88
2023-05-21T15:30:13.988Z,4.97
2023-05-21T15:32:49.713Z,3.28
2023-05-21T15:35:19.286Z,5.07
2023-05-21T15:37:46.756Z,5.07
2023-05-21T15:40:16.406Z,3.20
2023-05-21T15:42:43.760Z,4.13
2023-05-21T15:45:19.311Z,2.63
2023-05-21T15:47:53.129Z,3.42
2023-05-21T15:50:37.341Z,2.75
2023-05-21T15:53:41.709Z,3.57
2023-05-21T15:56:34.039Z,4.60
2023-05-21T15:59:09.521Z,3.30
2023-05-21T16:01:36.927Z,4.90
2023-05-21T16:04:05.099Z,3.10
2023-05-21T16:06:34.569Z,8.43
2023-05-21T16:09:02.494Z,2.88
2023-05-21T16:11:30.073Z,2.83
2023-05-21T16:13:58.328Z,3.90
2023-05-21T16:16:33.308Z,4.25
2023-05-21T16:19:03.194Z,3.30
2023-05-21T16:21:31.027Z,5.88
2023-05-21T16:24:00.739Z,9.07
2023-05-21T16:26:32.257Z,3.10
2023-05-21T16:28:59.876Z,3.13
2023-05-21T16:31:28.728Z,3.60
2023-05-21T16:33:56.471Z,5.72
2023-05-21T16:36:23.946Z,3.67
2023-05-21T16:38:52.853Z,6.38
2023-05-21T16:41:20.511Z,6.95
2023-05-21T16:43:51.077Z,6.88
2023-05-21T16:46:18.621Z,3.35
2023-05-21T16:48:46.462Z,3.22
2023-05-21T16:51:14.189Z,3.78
2023-05-21T16:53:41.879Z,3.35
2023-05-21T16:56:09.951Z,4.95
2023-05-21T16:58:38.945Z,4.70
2023-05-21T17:01:06.531Z,3.75
2023-05-21T17:03:34.495Z,5.00
2023-05-21T17:06:02.115Z,3.75
2023-05-21T17:08:29.861Z,4.97
2023-05-21T17:10:57.665Z,3.20
2023-05-21T17:13:27.522Z,2.60
2023-05-21T17:15:58.145Z,6.25
2023-05-21T17:18:30.573Z,5.60
2023-05-21T17:20:59.553Z,3.92
2023-05-21T17:23:27.264Z,2.83
2023-05-21T17:25:54.763Z,8.00
2023-05-21T17:28:22.403Z,6.70
2023-05-21T17:30:49.978Z,3.15
2023-05-21T17:33:17.833Z,3.63
2023-05-21T17:35:45.175Z,2.88
2023-05-21T17:38:12.908Z,2.78
2023-05-21T17:40:40.325Z,3.03
2023-05-21T17:43:08.153Z,2.97
2023-05-21T17:45:35.822Z,5.53
2023-05-21T17:48:06.522Z,4.60
2023-05-21T17:50:35.816Z,4.15
2023-05-21T17:53:23.500Z,4.50
2023-05-21T17:55:50.871Z,3.47
2023-05-21T17:58:21.209Z,7.05
2023-05-21T18:00:50.039Z,3.83
2023-05-21T18:03:17.936Z,5.35
2023-05-21T18:05:45.446Z,4.45
2023-05-21T18:08:13.676Z,4.30
2023-05-21T18:10:41.214Z,3.85
2023-05-21T18:13:08.928Z,2.92
2023-05-21T18:15:36.556Z,2.88
2023-05-21T18:18:24.714Z,3.22
2023-05-21T18:20:54.925Z,6.07
2023-05-21T18:23:24.316Z,11.20
2023-05-21T18:25:51.745Z,5.72
2023-05-21T18:38:33.294Z,4.18
2023-05-21T18:41:01.287Z,4.70
2023-05-21T18:43:28.707Z,8.82
2023-05-21T18:45:56.429Z,4.25
2023-05-21T18:48:23.801Z,4.45
2023-05-21T18:50:51.503Z,5.05
2023-05-21T18:53:18.899Z,3.65
2023-05-21T18:55:46.809Z,4.15
2023-05-21T18:58:14.284Z,7.75
2023-05-21T19:00:43.242Z,3.28
2023-05-21T19:03:10.825Z,6.35
2023-05-21T19:05:38.698Z,3.45
2023-05-21T19:08:06.284Z,3.25
2023-05-21T19:10:34.077Z,4.85
2023-05-21T19:13:12.414Z,5.78
2023-05-21T19:15:40.364Z,4.03
2023-05-21T19:18:26.838Z,4.38
2023-05-21T19:21:07.276Z,3.35
2023-05-21T19:23:52.586Z,4.18
2023-05-21T19:26:22.857Z,3.35
2023-05-21T19:29:22.252Z,4.65
2023-05-21T19:31:48.010Z,6.07
2023-05-21T19:34:15.630Z,3.92
2023-05-21T19:36:53.393Z,8.73
2023-05-21T19:39:21.677Z,4.15
2023-05-21T19:41:49.413Z,5.30
2023-05-21T19:44:16.833Z,8.18
2023-05-21T19:46:44.581Z,6.07
2023-05-21T19:49:11.984Z,8.73
2023-05-21T19:51:40.636Z,4.40
2023-05-21T19:54:08.423Z,5.93
2023-05-21T19:56:36.184Z,5.72
2023-05-21T19:59:03.570Z,7.00
2023-05-21T20:01:31.796Z,4.47
2023-05-21T20:03:59.257Z,6.18
2023-05-21T20:06:27.194Z,5.05
2023-05-21T20:08:54.973Z,6.13
2023-05-21T20:11:22.756Z,5.10
2023-05-21T20:13:52.338Z,5.53
2023-05-21T20:16:28.849Z,4.03
2023-05-21T20:18:56.331Z,7.28
2023-05-21T20:21:24.590Z,3.70
2023-05-21T20:23:53.034Z,5.55
2023-05-21T20:26:33.773Z,8.32
2023-05-21T20:29:01.107Z,4.22
2023-05-21T20:31:28.975Z,6.13
2023-05-21T20:33:56.438Z,5.25
2023-05-21T20:36:24.087Z,4.68
2023-05-21T20:38:53.042Z,5.50
2023-05-21T20:41:23.603Z,6.45
2023-05-21T20:43:51.124Z,5.30
2023-05-21T20:46:19.182Z,5.07
2023-05-21T20:48:49.879Z,5.97
2023-05-21T20:51:17.773Z,5.65
2023-05-21T20:53:48.477Z,6.93
2023-05-21T20:56:23.897Z,4.25
2023-05-21T20:58:59.518Z,5.25
2023-05-21T21:01:29.925Z,5.00
2023-05-21T21:04:02.838Z,4.85
2023-05-21T21:06:30.673Z,5.15
2023-05-21T21:09:01.072Z,5.38
2023-05-21T21:11:35.140Z,5.20
2023-05-21T21:14:07.064Z,5.18
2023-05-21T21:16:34.923Z,4.80
2023-05-21T21:19:02.593Z,8.35
2023-05-21T21:21:36.617Z,5.15
2023-05-21T21:24:30.903Z,5.15
2023-05-21T21:26:58.777Z,6.32
2023-05-21T21:29:26.625Z,7.18
2023-05-21T21:31:54.409Z,7.45
2023-05-21T21:34:24.961Z,5.20
2023-05-21T21:36:53.699Z,4.13
2023-05-21T21:39:23.662Z,7.15
2023-05-21T21:41:51.337Z,6.40
2023-05-21T21:44:18.681Z,5.70
2023-05-21T21:46:48.297Z,6.50
2023-05-21T21:49:16.150Z,5.43
2023-05-21T21:52:04.017Z,8.32
2023-05-21T21:54:31.460Z,7.32
2023-05-21T21:57:00.191Z,4.15
2023-05-21T21:59:27.533Z,8.05
2023-05-21T22:01:55.392Z,5.68
2023-05-21T22:04:22.792Z,6.25
2023-05-21T22:06:50.525Z,6.63
2023-05-21T22:09:18.077Z,8.07
2023-05-21T22:11:49.020Z,6.47
2023-05-21T22:14:16.528Z,6.32
2023-05-21T22:16:44.185Z,5.28
2023-05-21T22:19:11.591Z,6.25
2023-05-21T22:21:39.470Z,5.28
2023-05-21T22:24:09.491Z,5.75
2023-05-21T22:26:40.467Z,7.70
2023-05-21T22:29:09.248Z,5.85
2023-05-21T22:31:38.084Z,7.30
2023-05-21T22:34:06.178Z,5.93
2023-05-21T22:36:33.837Z,6.15
2023-05-21T22:39:07.981Z,5.47
2023-05-21T22:41:35.641Z,6.40
2023-05-21T22:44:03.103Z,5.72
2023-05-21T22:46:30.765Z,7.45
2023-05-21T22:48:58.151Z,7.22
2023-05-21T22:51:25.815Z,4.82
2023-05-21T22:53:53.290Z,7.88
2023-05-21T22:56:22.343Z,4.88
2023-05-21T22:58:51.274Z,9.32
2023-05-21T23:01:19.135Z,5.93
2023-05-21T23:03:46.470Z,8.15
2023-05-21T23:06:14.166Z,6.32
2023-05-21T23:08:44.509Z,5.68
2023-05-21T23:11:12.483Z,4.35
2023-05-21T23:13:44.121Z,6.32
2023-05-21T23:16:12.195Z,4.03
2023-05-21T23:18:42.626Z,4.40
2023-05-21T23:21:14.034Z,7.78
2023-05-21T23:23:42.165Z,6.53
2023-05-21T23:26:13.066Z,6.65
2023-05-21T23:28:42.165Z,4.60
2023-05-21T23:31:10.704Z,6.28
2023-05-21T23:33:38.384Z,4.40
2023-05-21T23:36:28.522Z,6.18
2023-05-21T23:39:00.153Z,4.80
2023-05-21T23:41:27.863Z,4.47
2023-05-21T23:43:55.261Z,6.60
2023-05-21T23:46:23.295Z,6.93
2023-05-21T23:48:52.122Z,6.13
2023-05-21T23:51:19.759Z,8.48
2023-05-21T23:53:47.120Z,5.22
2023-05-21T23:56:14.805Z,7.35
2023-05-21T23:58:42.261Z,5.43
